Central Coast CX #8

 2017/18 NCNCA District Championships

Cyclocross: Saturday Jan. 6, 2018 – Schedule
Part of the 2017-18 CCCX Cyclocross Series

Results: Masters Group A

Masters Men 35+ A

Place # First Last City Cat Team License Age Laps @ Time Points
1 417 Justin ROBINSON Bonny Doon, CA 1 Santa Cruz Factory Racing 0030191 43 8 @ 00:47:36 50
2 406 Sean ESTES Morgan Hill, CA 1 Cycle Sport - Specialized p/b Muscle Milk 0248976 40 8 @ 00:48:06 47
3 412 Justin MORGAN Portola Valley, CA 1 Top Club 0025053 44 8 @ 00:48:52 45
4 408 Mark HOWARD Cupertino, CA 3 0459276 44 8 @ 00:49:26 44
5 407 Ryan GRENIER Oakland, CA 3 The Fast Forward 0096294 40 8 @ 00:50:50 43
6 419 Steve REANEY Santa Cruz, CA 1 0133288 47 8 @ 00:51:25 42
7 403 Matthew YOUNG Mill Valley, CA 2 Team Roaring Mouse 0050662 41 8 @ 00:51:37 41
8 404 Ode BERNSTEIN Piedmont, CA 5 Swell Bikes 8888829 43 8 @ 00:53:04 40
9 409 Miles KEEP Menlo Park, CA 2 0333112 51 8 @ 00:53:15 39
10 405 Ben DODGE San Jose, CA 2 SunPower Racing 0178595 38 8 @ 00:53:48 38
11 418 Justin HINTZ Sacramento, CA 3 0368842 43 7 @ 00:48:26 37
12 414 Rozel TUPAZ Pleasanton, CA 2 CBRE Racing 0269119 43 7 @ 00:49:18 36
13 416 Shaun O'BRYAN 5 Swell 8888830 7 @ 00:50:34 35
14 402 Matthew TRISKA San Francisco, CA 3 0257229 42 7 @ 00:55:08 34
15 415 Dan WINTERBERG San Francisco, CA 5 Vive La Tarte CX - Huckleberry Bicycles 302804 42 6 @ 00:48:28 33
16 410 David MAI Novato, CA 3 ThirstyBear Cycling 0232508 37 5 @ 00:33:12 32
DNS Patrick MILLER Morgan Hill, CA 2 The Fast Forward 0416695 40 -
DNS Randy SHELTON San Francisco, CA 3 ORNOT 0448131 44 -
Field: 16 of 100

Masters Men 45+ A

Place # First Last City Cat Team License Age Laps @ Time Points
1 764 Donald MYRAH San Jose, CA 1 0025636 52 8 @ 00:48:05 50
2 760 Mike DONAHUE Los Gatos, CA 1 0009769 50 8 @ 00:48:24 47
3 718 Christopher PECK Los Gatos, CA 1 CT Cycling Advancement Program 0050748 48 8 @ 00:48:32 45
4 711 Todd HOEFER Aptos, CA 1 Family Cycling Center 0016401 51 8 @ 00:48:52 44
5 707 Brock DICKIE Santa Cruz, CA 1 Ibis/Buy-cell.com 0042222 47 - 43
6 706 Brad CANNELLA Cambria, CA 1 The Fast Forward 0092638 46 8 @ 00:49:20 42
7 757 John FUNKE San Francisco, CA 1 Team Mikes Bikes p/b Equator Coffees 0012565 50 8 @ 00:49:45 41
8 762 Sean HAIDET San Luis Obispo, CA 2 Schnur Racing 0153943 48 8 @ 00:50:07 40
9 751 Chris GAFFNEY San Jose, CA 3 SunPower Racing 0286526 54 8 @ 00:50:58 39
10 767 Gannon MYALL Lafayette, CA 5 Canyon Bicycles 0025592 53 8 @ 00:51:20 38
11 754 Eric TAKAYAMA San Carlos, CA 2 Hup United 0092480 47 8 @ 00:51:35 37
12 704 Justin BUCKTROUT San Francisco, CA 3 0391277 48 8 @ 00:52:24 36
13 766 Anastasio FLORES La Selva Beach, CA 1 0011877 47 8 @ 00:52:36 35
14 712 Mark HOWLAND Santa Cruz, CA 1 Family Cycling Center 0016935 54 8 @ 00:52:51 34
15 709 Giles HEALEY Salinas, CA 3 Bike Works 0158386 49 8 @ 00:52:53 33
16 716 Basil MOUTSOPOULOS Belmont, CA 2 Pen Velo Racing/Summit Bicycles 0055050 48 8 @ 00:53:00 32
17 749 Timothy CANNARD 5 Buycell Racing 6002 8 @ 00:54:02 31
18 714 Warren MARSHALL Gilroy, CA 3 The Fast Forward 0493425 52 7 @ 00:47:33 30
19 722 Gregory SPANIER Alamo, CA 2 0332082 50 7 @ 00:48:01 29
20 708 Mark FITZSIMMONS Felton, CA 4 Family cycling center FOX 0122426 47 7 @ 00:48:03 28
21 710 Steve HINDMAN Los Altos, CA 2 Pen Velo Racing/Summit Bicycles 0062921 51 7 @ 00:48:07 27
22 755 Andrew YEE Mountain View, CA 3 0050693 45 7 @ 00:48:15 26
23 759 Paul LUGAR Boulder, CO 2 0021788 49 7 @ 00:48:16 25
24 756 Mark ACKER Santa Cruz, CA 5 0540452 48 7 @ 00:48:21 24
25 761 Carl HEKKERT Sunnyvale, CA 1 Form Fitness Racing 0015729 47 7 @ 00:49:35 23
26 720 Pat RUGGLES Benicia, CA 3 Sports basement 0090165 45 7 @ 00:50:15 22
27 724 John VAHLBERG Mountain View, CA 3 0302136 48 7 @ 00:50:42 21
28 763 David TRICAMO San Francisco, CA 3 0035925 54 7 @ 00:50:44 20
29 713 Rolland JURGENS Walnut Creek, CA 3 CA Technologies Racing 0285465 47 7 @ 00:50:51 19
30 705 Eric BUSTOS Alameda, CA 1 0040678 50 7 @ 00:51:22 18
31 715 Matthew MCNAMARA Sunnyvale, CA 2 Pen Velo Racing/Summit Bicycles 0023775 49 7 @ 00:52:07 17
32 721 Stacey SELL Prunedale, CA 3 Family Cycling Center 0235653 52 7 @ 00:52:20 16
33 769 Shawn DALY Santa Rosa, CA 3 ThirstyBear Cycling 0205616 52 7 @ 00:52:43 15
34 719 Matthew ROLANDSON San Francisco, CA 3 0084257 50 6 @ 00:48:20 14
35 765 Phill ROBERTS 5 Cycles Fanatic 30110 6 @ 00:48:31 13
DNP 753 Bernardo TAPIA Redwood City, CA 4 SunPower Racing 0456472 45 - 1
DNS Jason NEARN Fresno, CA 3 ACADEMY 0367019 47 -
DNS Brian STABY Santa Rosa, CA 1 CX Nation 0215179 47 -
DNS William YOUNGMAN Rocklin, CA 1 Revs Road Race p/b Kinetic Cycles 0203737 49 -
Field: 36 of 300

Masters Men 55+ A

Place # First Last City Cat Team License Age Laps @ Time Points
1 902 Greg FOY Aptos, CA 2 Rock Lobster 0012181 59 8 @ 00:52:56 50
2 921 Jim ATKINSON Los Gatos, CA 5 0517134 56 - 47
3 909 Mike WARREN Sebastopol, CA 3 Velo Fratello Cycling Team 0037286 57 - 45
4 931 Mike URBINA 5 Team Oakland 36247 - 44
5 905 Mark MASTORAS San Bruno, CA 3 0117797 55 - 43
6 932 Ross TINLINE San Carlos, CA 3 Pen Velo Racing/Summit Bicycles 0035623 55 - 42
7 908 Philip VRIELING Modesto, CA 3 Funsport Bikes Cycling Team 0185026 55 - 41
8 935 Robert MEIGHAN San Jose, CA 1 0040227 57 - 40
9 904 Craig LINDBERG Nevada City, CA 2 ol'Republic/SERT 0083707 57 - 39
10 906 John SEIVERT Grass Valley, CA 3 ol'Republic/SERT 0212792 58 - 38
11 937 Raul DE ANDA West Sacramento, CA 5 0456376 58 - 37
12 903 Mark KOENIG San Jose, CA 4 Pen Velo Racing/Summit Bicycles 0141726 58 - 36
13 901 Jim ENGLISH San Ramon, CA 5 0390015 58 - 35
14 930 Manuel AFFONSO 5 Rock Lobster 0432858 - 34
DNP 933 Ruben VILLAREAL 5 140334 - 1
DNP 934 Detlef ADAM Santa Cruz, CA 4 Spokesman Bicycles 0054548 56 - 1
DNS Tom CARPENTER Oakland, CA 5 Team Oakland Cycling 58 -
DNS Duane STRAWSER Nevada City, CA 3 ol'Republic/SERT 0034392 55 -
Field: 16 of 100

Masters Men 60+ A

Place # First Last City Cat Team License Age Laps @ Time Points
1 44 George SMITH Menlo Park, CA 2 Active Medical Group of Northern California 0168005 63 7 @ 00:47:49 50
2 49 Joe FABRIS Watsonville, CA 1 Plus 3 0189959 60 7 @ 00:48:41 47
3 23 Dane GRANT San Francisco, CA 2 Team Roaring Mouse 0171862 60 7 @ 00:49:35 45
4 47 John BROWN Santa Cruz, CA 3 0005094 63 7 @ 00:50:27 44
5 20 Paul FALVEY Grass Valley, CA 3 ol'Republic/SERT 0011212 61 7 @ 00:50:31 43
6 24 Bill HARKOLA San Carlos, CA 5 Pen Velo Racing/Summit Bicycles 0458500 60 7 @ 00:51:26 42
7 48 Robert WILLCOX San Diego, CA 3 UC Cyclery/JW Floors 0069952 63 7 @ 00:51:38 41
8 45 Rick ORTENBLAD Santa Cruz, CA 4 0359872 64 7 @ 00:52:22 40
9 43 Jay THORNTON Laguna Beach, CA 2 G2 Bike 0086303 60 6 @ 00:41:15 39
10 25 Paul SADOFF Santa Cruz, CA 3 Voler/Clif/HRS/Rock Lobster 0083434 63 6 @ 00:49:02 38
11 26 Anthony SMITH El Dorado, CA 5 Pasadena Cyclery 0517468 64 6 @ 00:50:04 37
12 21 Bob FETHERSTON Los Gatos, CA 4 0046408 66 5 @ 00:39:34 36
13 34 Alex LAPPE 5 8888104 5 @ 00:51:58 35
14 19 Robert DOWNS Belleville, WI 2 0009947 62 3 @ 00:20:39 34
DNS Thomas FOX San Francisco, CA 3 Team Roaring Mouse 0211278 65 -
Field: 14 of 119

Masters Men 65+ A

Place # First Last City Cat Team License Age Laps @ Time
1 802 Thomas FOX San Francisco, CA 3 Team Roaring Mouse 0211278 65 7 @ 00:52:38
2 801 Tom WEBB Reno, NV 3 Clean Power Cycling pb TESLA 0522619 66 7 @ 00:52:54
3 800 Mark BROWN Santa Cruz, CA 5 Rocklobster 0539915 66 6 @ 00:55:22
Field: 3 of 51

Masters Men 70+ A

Place # First Last City Cat Team License Age Laps @ Time
1 315 John ELGART Sacramento, CA 3 Sacramento Golden Wheelmen 0045071 72 7 @ 00:52:44
Field: 1 of 51
Table notes: